Time;durP1;ratioP1;P1;durP2;ratioP2;P2;SDS_P1;SDS_P2;PMS_P1;PMS_P2;Temp;Humidity;BMP_temperature;BMP_pressure;BME280_temperature;BME280_humidity;BME280_pressure;Samples;Min_cycle;Max_cycle;Signal;HPM_P1;HPM_P2
2022/01/08 00:00:12;;;;;;;5.70;3.15;;;;;;;0.68;87.40;100963.72;5055235;28;20025;-86
2022/01/08 00:02:37;;;;;;;4.85;2.95;;;;;;;0.65;87.39;100961.09;5054533;28;20063;-86
2022/01/08 00:05:03;;;;;;;4.68;3.05;;;;;;;0.63;87.37;100964.41;5054756;28;20072;-85
2022/01/08 00:07:28;;;;;;;3.83;2.90;;;;;;;0.64;87.19;100971.25;5055507;28;20029;-86
2022/01/08 00:09:54;;;;;;;4.95;3.03;;;;;;;0.65;87.33;100973.88;5054506;28;20454;-86
2022/01/08 00:12:20;;;;;;;5.30;2.92;;;;;;;0.57;87.12;100966.00;5055253;28;20465;-86
2022/01/08 00:14:57;;;;;;;5.45;3.08;;;;;;;0.56;87.37;100966.81;5054291;28;20032;-86
2022/01/08 00:17:23;;;;;;;5.03;3.00;;;;;;;0.59;86.87;100966.91;5055062;28;20028;-85
2022/01/08 00:19:52;;;;;;;4.28;2.88;;;;;;;0.60;87.11;100976.31;5054786;28;20044;-86
2022/01/08 00:22:17;;;;;;;4.25;2.80;;;;;;;0.58;87.02;100982.16;5080035;22;20016;-85
2022/01/08 00:24:47;;;;;;;3.70;2.60;;;;;;;0.58;86.90;100992.38;5073630;28;20048;-85
2022/01/08 00:27:12;;;;;;;4.68;2.90;;;;;;;0.54;87.42;100982.94;5072781;28;20473;-85
2022/01/08 00:29:39;;;;;;;4.60;2.60;;;;;;;0.51;87.10;100980.28;5073854;28;20028;-85
2022/01/08 00:32:05;;;;;;;6.05;2.90;;;;;;;0.50;87.07;100981.09;5074653;28;20077;-86
2022/01/08 00:34:30;;;;;;;4.90;2.70;;;;;;;0.46;87.42;100988.66;5073218;28;20036;-86
2022/01/08 00:36:55;;;;;;;3.92;2.83;;;;;;;0.45;86.93;100996.28;5072978;28;20491;-85
2022/01/08 00:39:20;;;;;;;4.32;2.95;;;;;;;0.40;87.03;100991.06;5074417;28;20024;-86
2022/01/08 00:41:48;;;;;;;4.85;3.10;;;;;;;0.39;86.71;100991.03;5074299;28;20028;-86
2022/01/08 00:44:16;;;;;;;5.70;3.10;;;;;;;0.40;87.35;100995.28;5073445;28;20028;-85
2022/01/08 00:46:44;;;;;;;5.38;3.10;;;;;;;0.37;86.98;100998.63;5073991;28;20025;-85
2022/01/08 00:49:09;;;;;;;4.80;2.67;;;;;;;0.35;87.33;101000.25;5074255;28;20036;-85
2022/01/08 00:51:35;;;;;;;5.53;2.70;;;;;;;0.36;87.36;101007.09;5073988;28;20021;-85
2022/01/08 00:54:00;;;;;;;5.10;2.90;;;;;;;0.38;87.41;101015.66;5073857;28;20032;-85
2022/01/08 00:56:44;;;;;;;5.38;3.10;;;;;;;0.35;87.44;101015.56;5074186;28;20082;-85
2022/01/08 00:59:09;;;;;;;5.45;3.53;;;;;;;0.39;87.80;101027.63;5053055;28;20493;-86
2022/01/08 01:01:34;;;;;;;6.55;3.20;;;;;;;0.41;87.42;101022.53;5054203;28;20107;-85
2022/01/08 01:04:00;;;;;;;6.03;3.53;;;;;;;0.39;87.18;101022.50;5053263;28;20035;-85
2022/01/08 01:06:25;;;;;;;5.25;3.20;;;;;;;0.39;87.66;101021.66;5054051;28;20082;-85
2022/01/08 01:08:50;;;;;;;4.70;2.90;;;;;;;0.41;87.14;101017.44;5053753;28;20021;-86
2022/01/08 01:11:16;;;;;;;5.75;3.00;;;;;;;0.40;87.19;101005.50;5053006;28;20044;-85
2022/01/08 01:13:41;;;;;;;5.15;2.90;;;;;;;0.40;87.57;101006.38;5053106;28;20025;-85
2022/01/08 01:16:06;;;;;;;3.97;2.80;;;;;;;0.42;87.41;101003.84;5053752;28;20020;-85
2022/01/08 01:18:32;;;;;;;4.40;2.80;;;;;;;0.37;87.54;101008.84;5053238;28;20024;-85
2022/01/08 01:20:58;;;;;;;5.38;3.33;;;;;;;0.40;87.51;101013.16;5068908;28;20127;-85
2022/01/08 01:23:32;;;;;;;6.68;3.40;;;;;;;0.37;87.50;100998.63;5072013;28;20086;-85
2022/01/08 01:26:01;;;;;;;5.90;3.22;;;;;;;0.36;87.25;100996.88;5072731;28;20396;-85
2022/01/08 01:41:54;;;;;;;2.92;2.38;;;;;;;0.20;87.28;101015.13;5053648;28;20048;-86
2022/01/08 01:47:04;;;;;;;5.05;2.80;;;;;;;0.15;87.39;101036.28;5052699;28;20110;-85
2022/01/08 01:49:35;;;;;;;4.45;3.00;;;;;;;0.15;86.69;101027.75;5053085;28;20025;-85
2022/01/08 01:52:01;;;;;;;4.45;2.80;;;;;;;0.13;87.02;101024.28;5053062;28;20036;-85
2022/01/08 01:54:30;;;;;;;5.00;2.60;;;;;;;0.12;87.00;101023.41;5051962;28;20060;-85
2022/01/08 01:56:57;;;;;;;3.75;2.63;;;;;;;0.13;87.04;101024.28;5052935;28;20028;-85
2022/01/08 01:59:23;;;;;;;3.75;2.60;;;;;;;0.12;87.31;101012.34;5053073;28;20020;-85
2022/01/08 02:01:48;;;;;;;3.80;2.53;;;;;;;0.12;87.60;101008.09;5051975;28;20392;-85
2022/01/08 02:04:14;;;;;;;4.60;3.00;;;;;;;0.15;87.45;101017.56;5052758;28;20298;-85
2022/01/08 02:06:39;;;;;;;5.10;3.20;;;;;;;0.15;86.96;101009.91;5052784;28;20033;-85
2022/01/08 02:09:04;;;;;;;5.15;3.08;;;;;;;0.15;86.92;101010.75;5052032;28;20052;-85
2022/01/08 02:11:29;;;;;;;5.65;3.10;;;;;;;0.13;87.43;101007.28;5052901;28;20009;-85
2022/01/08 02:14:04;;;;;;;4.88;3.10;;;;;;;0.09;87.26;101012.25;5052373;28;20135;-85
2022/01/08 02:16:30;;;;;;;4.80;3.05;;;;;;;0.09;86.91;101014.81;5052345;28;20021;-85
2022/01/08 02:18:55;;;;;;;5.65;2.92;;;;;;;0.07;87.03;101019.88;5052959;28;20032;-85
2022/01/08 02:21:21;;;;;;;4.68;3.00;;;;;;;0.04;87.04;101024.03;5051919;28;20413;-85
2022/01/08 02:23:48;;;;;;;5.22;3.30;;;;;;;-0.01;86.70;101021.31;5052252;28;20044;-85
2022/01/08 02:26:13;;;;;;;5.05;3.15;;;;;;;-0.02;86.98;101024.69;5052604;28;20512;-85
2022/01/08 02:28:40;;;;;;;6.88;3.58;;;;;;;-0.05;87.25;101024.59;5051575;28;20065;-84
2022/01/08 02:31:06;;;;;;;7.15;4.10;;;;;;;-0.11;87.10;101022.72;5052312;28;20110;-85
2022/01/08 02:33:32;;;;;;;7.85;4.22;;;;;;;-0.12;87.21;101023.53;5052639;28;20516;-85
2022/01/08 02:36:03;;;;;;;8.53;4.60;;;;;;;-0.13;87.31;101028.59;5051726;28;20029;-85
2022/01/08 02:38:29;;;;;;;5.75;4.03;;;;;;;-0.14;87.50;101024.31;5051631;28;20380;-84
2022/01/08 02:40:58;;;;;;;8.85;4.70;;;;;;;-0.18;87.56;101021.66;5072385;28;20064;-85
2022/01/08 02:43:24;;;;;;;8.63;4.53;;;;;;;-0.20;87.14;101036.03;5071770;28;20503;-85
2022/01/08 02:45:52;;;;;;;10.48;5.18;;;;;;;-0.22;87.43;101030.00;5072181;28;20032;-85
2022/01/08 02:48:18;;;;;;;8.18;4.30;;;;;;;-0.23;87.92;101033.41;5072753;28;20035;-85
2022/01/08 02:50:43;;;;;;;8.25;4.60;;;;;;;-0.25;87.46;101026.50;5069571;28;20426;-85
2022/01/08 02:53:09;;;;;;;7.68;4.72;;;;;;;-0.25;87.73;101036.72;5072594;28;20021;-85
2022/01/08 02:55:36;;;;;;;6.95;4.30;;;;;;;-0.24;87.51;101030.78;5071550;28;20025;-85
2022/01/08 02:58:02;;;;;;;8.77;4.78;;;;;;;-0.27;87.63;101036.66;5070938;28;20021;-85
2022/01/08 03:00:28;;;;;;;7.70;4.40;;;;;;;-0.26;87.45;101035.84;5073207;28;20479;-85
2022/01/08 03:02:53;;;;;;;8.52;4.53;;;;;;;-0.26;87.74;101030.75;5075938;28;20032;-84
2022/01/08 03:05:19;;;;;;;7.50;4.40;;;;;;;-0.21;88.09;101036.00;5075509;28;20024;-85
2022/01/08 03:07:45;;;;;;;9.90;5.20;;;;;;;-0.23;88.23;101028.31;5074346;28;20021;-85
2022/01/08 03:10:13;;;;;;;11.27;5.63;;;;;;;-0.25;88.05;101026.50;5075665;28;20032;-84
2022/01/08 03:12:41;;;;;;;8.27;4.50;;;;;;;-0.27;88.04;101026.47;5074878;28;20366;-85
2022/01/08 03:15:09;;;;;;;8.63;4.50;;;;;;;-0.27;87.68;101031.56;5076199;28;20464;-85
2022/01/08 03:17:38;;;;;;;8.25;4.75;;;;;;;-0.28;87.83;101032.38;5075382;28;20048;-85
2022/01/08 03:20:06;;;;;;;8.80;4.85;;;;;;;-0.29;87.94;101023.00;5076326;28;20029;-85
2022/01/08 03:22:32;;;;;;;10.23;5.38;;;;;;;-0.30;88.30;101026.38;5075988;28;20020;-85
2022/01/08 03:25:09;;;;;;;12.05;5.07;;;;;;;-0.27;88.16;101030.69;5074598;28;20548;-85
2022/01/08 03:27:34;;;;;;;8.77;4.43;;;;;;;-0.30;87.85;101021.25;5076359;28;20029;-85
2022/01/08 03:30:06;;;;;;;10.35;4.95;;;;;;;-0.35;88.33;101025.38;5075414;28;20358;-85
2022/01/08 03:32:32;;;;;;;8.40;4.60;;;;;;;-0.31;88.32;101032.28;5075459;28;20035;-85
2022/01/08 03:34:57;;;;;;;10.63;5.15;;;;;;;-0.36;88.87;101031.28;5058393;28;20456;-85
2022/01/08 03:37:23;;;;;;;8.68;4.60;;;;;;;-0.35;87.98;101033.00;5055542;28;20028;-85
2022/01/08 03:39:48;;;;;;;10.30;4.70;;;;;;;-0.40;88.11;101029.44;5055000;28;20044;-85
2022/01/08 03:42:13;;;;;;;9.00;4.80;;;;;;;-0.35;87.94;101044.06;5055249;28;20050;-85
2022/01/08 03:44:57;;;;;;;9.95;4.97;;;;;;;-0.38;88.41;101035.47;5055071;28;20049;-85
2022/01/08 03:49:54;;;;;;;8.45;4.50;;;;;;;-0.36;87.92;101041.47;5075233;28;20029;-84
2022/01/08 03:52:20;;;;;;;8.03;4.20;;;;;;;-0.36;88.22;101038.94;5075260;28;20035;-85
2022/01/08 03:54:45;;;;;;;8.15;3.88;;;;;;;-0.37;87.99;101030.41;5074772;28;20028;-85
2022/01/08 03:57:11;;;;;;;7.40;4.32;;;;;;;-0.41;88.06;101020.03;5075553;28;20393;-85
2022/01/08 03:59:36;;;;;;;10.05;4.15;;;;;;;-0.39;87.92;101024.38;5075308;28;20454;-85
2022/01/08 04:02:02;;;;;;;9.25;4.53;;;;;;;-0.40;88.42;101037.09;5074496;28;20031;-85
2022/01/08 04:04:27;;;;;;;7.13;4.00;;;;;;;-0.43;88.25;101032.75;5061825;28;20435;-85
2022/01/08 04:06:52;;;;;;;6.32;3.72;;;;;;;-0.41;88.26;101043.00;5054096;28;20032;-84
2022/01/08 04:09:21;;;;;;;6.35;4.13;;;;;;;-0.41;87.84;101051.53;5055040;28;20032;-85
2022/01/08 04:11:46;;;;;;;9.77;4.63;;;;;;;-0.43;88.22;101058.25;5054471;28;20025;-85
2022/01/08 04:14:14;;;;;;;7.85;4.60;;;;;;;-0.48;88.27;101047.91;5054487;28;20036;-85
2022/01/08 04:16:43;;;;;;;10.43;4.45;;;;;;;-0.47;88.30;101057.28;5055206;28;20028;-84
2022/01/08 04:19:08;;;;;;;9.48;4.57;;;;;;;-0.54;88.69;101050.25;5054895;28;20107;-84
2022/01/08 04:24:21;;;;;;;10.82;5.15;;;;;;;-0.52;88.03;101046.06;5054165;28;20044;-85
2022/01/08 04:26:49;;;;;;;11.82;5.10;;;;;;;-0.56;88.56;101051.00;5054360;28;20033;-85
2022/01/08 04:29:14;;;;;;;11.25;5.20;;;;;;;-0.53;88.44;101054.53;5066916;28;20029;-85
2022/01/08 04:31:40;;;;;;;10.27;4.90;;;;;;;-0.51;89.13;101068.19;5074193;28;20379;-85
2022/01/08 04:34:05;;;;;;;11.65;5.53;;;;;;;-0.50;89.18;101077.59;5074999;28;20069;-85
2022/01/08 04:36:45;;;;;;;10.18;5.15;;;;;;;-0.52;89.23;101074.09;5073497;28;20039;-85
2022/01/08 04:39:11;;;;;;;10.93;5.28;;;;;;;-0.49;89.50;101079.31;5074337;28;20028;-85
2022/01/08 04:41:36;;;;;;;9.57;5.07;;;;;;;-0.52;89.54;101071.56;5074261;28;20021;-85
2022/01/08 04:44:01;;;;;;;10.82;5.20;;;;;;;-0.50;89.30;101077.59;5073307;28;20456;-85
2022/01/08 04:46:26;;;;;;;8.45;4.85;;;;;;;-0.49;89.16;101074.22;5074551;28;20073;-85
2022/01/08 04:48:52;;;;;;;9.88;5.35;;;;;;;-0.50;89.17;101071.59;5073382;28;20380;-84
2022/01/08 04:51:17;;;;;;;10.40;5.30;;;;;;;-0.49;89.07;101068.25;5073804;28;20025;-85
2022/01/08 04:53:42;;;;;;;9.63;5.07;;;;;;;-0.50;89.31;101076.69;5074079;28;20052;-85
2022/01/08 04:56:08;;;;;;;10.70;5.63;;;;;;;-0.48;89.45;101085.28;5073334;28;20578;-85
2022/01/08 04:58:33;;;;;;;7.32;4.72;;;;;;;-0.50;89.37;101084.34;5074143;28;20034;-85
2022/01/08 05:00:59;;;;;;;9.52;5.00;;;;;;;-0.50;89.40;101090.34;5073862;28;20025;-84
2022/01/08 05:03:24;;;;;;;8.15;4.80;;;;;;;-0.51;89.58;101093.69;5073518;28;20108;-85
2022/01/08 05:05:49;;;;;;;11.88;5.65;;;;;;;-0.52;90.03;101086.00;5073791;28;20473;-85
2022/01/08 05:08:15;;;;;;;10.48;5.43;;;;;;;-0.52;89.20;101091.97;5074121;28;20024;-85
2022/01/08 05:10:40;;;;;;;8.48;4.90;;;;;;;-0.55;88.85;101081.66;5072684;28;20021;-84
2022/01/08 05:13:06;;;;;;;10.85;5.03;;;;;;;-0.51;88.92;101086.03;5073725;28;20047;-85
2022/01/08 05:15:33;;;;;;;9.82;5.32;;;;;;;-0.51;89.90;101095.38;5073638;28;20461;-85
2022/01/08 05:18:02;;;;;;;9.52;5.20;;;;;;;-0.53;89.30;101092.78;5072872;28;20412;-85
2022/01/08 05:20:32;;;;;;;10.35;5.40;;;;;;;-0.52;90.05;101093.66;5073656;28;20031;-84
2022/01/08 05:23:04;;;;;;;10.98;5.18;;;;;;;-0.53;89.54;101095.31;5067694;28;20459;-85
2022/01/08 05:25:33;;;;;;;8.63;5.07;;;;;;;-0.54;90.06;101097.84;5053043;28;20420;-85
2022/01/08 05:27:59;;;;;;;8.80;5.03;;;;;;;-0.55;89.67;101091.00;5053259;28;20029;-85
2022/01/08 05:30:26;;;;;;;8.65;5.18;;;;;;;-0.52;89.62;101097.06;5053704;28;20468;-85
2022/01/08 05:32:52;;;;;;;9.15;4.95;;;;;;;-0.53;90.25;101091.91;5052597;28;20045;-84
2022/01/08 05:35:24;;;;;;;9.30;4.75;;;;;;;-0.53;89.88;101097.00;5053432;28;20031;-83
2022/01/08 05:37:50;;;;;;;11.20;5.43;;;;;;;-0.54;89.58;101106.31;5053091;28;20477;-84
2022/01/08 05:40:15;;;;;;;8.35;4.63;;;;;;;-0.53;89.79;101105.53;5053527;28;20024;-83
2022/01/08 05:42:41;;;;;;;11.40;5.03;;;;;;;-0.46;89.17;101093.84;5053261;28;20098;-83
2022/01/08 05:45:07;;;;;;;11.85;5.70;;;;;;;-0.50;89.09;101090.34;5053295;28;20028;-84
2022/01/08 05:47:34;;;;;;;10.80;5.32;;;;;;;-0.51;89.09;101093.69;5052731;28;20057;-81
2022/01/08 05:49:59;;;;;;;9.48;4.75;;;;;;;-0.47;89.10;101100.66;5050572;28;20056;-81
2022/01/08 05:52:25;;;;;;;7.80;4.63;;;;;;;-0.49;88.97;101102.28;5052447;28;20021;-81
2022/01/08 05:54:50;;;;;;;8.20;4.03;;;;;;;-0.48;89.21;101108.22;5052764;28;20449;-82
2022/01/08 05:57:16;;;;;;;6.72;3.90;;;;;;;-0.48;89.17;101116.75;5052848;28;20112;-81
2022/01/08 05:59:41;;;;;;;5.53;3.25;;;;;;;-0.49;88.91;101111.59;5052189;28;20033;-85
2022/01/08 06:02:09;;;;;;;4.93;3.30;;;;;;;-0.50;88.99;101113.28;5052810;28;20036;-83
2022/01/08 06:04:36;;;;;;;4.88;3.30;;;;;;;-0.48;89.04;101113.31;5053020;28;20108;-85
2022/01/08 06:07:02;;;;;;;4.95;3.00;;;;;;;-0.49;88.88;101119.22;5051777;28;20526;-85
2022/01/08 06:09:27;;;;;;;5.53;3.50;;;;;;;-0.44;88.98;101127.94;5052582;28;20112;-84
2022/01/08 06:11:52;;;;;;;5.10;3.50;;;;;;;-0.50;89.26;101126.03;5052508;28;20381;-84
2022/01/08 06:14:18;;;;;;;6.65;3.50;;;;;;;-0.53;89.06;101119.97;5066679;28;20029;-84
2022/01/08 06:16:43;;;;;;;4.47;3.20;;;;;;;-0.51;89.11;101126.84;5072673;28;20020;-85
2022/01/08 06:19:12;;;;;;;5.65;3.30;;;;;;;-0.50;89.08;101135.34;5072480;28;20028;-84
2022/01/08 06:21:38;;;;;;;5.93;3.13;;;;;;;-0.50;89.11;101137.91;5072163;28;20025;-84
2022/01/08 06:24:04;;;;;;;5.38;3.40;;;;;;;-0.51;89.38;101136.19;5072082;28;20067;-85
2022/01/08 06:26:29;;;;;;;4.05;2.95;;;;;;;-0.49;89.06;101132.88;5072584;28;20033;-84
2022/01/08 06:28:55;;;;;;;3.08;2.60;;;;;;;-0.49;89.62;101135.41;5071958;28;20107;-84
2022/01/08 06:31:22;;;;;;;3.58;2.65;;;;;;;-0.48;88.80;101131.16;5072868;28;20028;-84
2022/01/08 06:33:48;;;;;;;3.55;2.80;;;;;;;-0.47;89.19;101132.91;5072462;28;20051;-84
2022/01/08 06:36:17;;;;;;;6.93;3.33;;;;;;;-0.43;89.12;101138.97;5074358;28;20074;-84
2022/01/08 06:38:43;;;;;;;5.32;3.30;;;;;;;-0.44;89.24;101135.56;5076695;28;20021;-84
2022/01/08 06:41:08;;;;;;;6.75;3.45;;;;;;;-0.44;89.17;101127.03;5076647;28;20112;-83
2022/01/08 06:43:33;;;;;;;5.55;3.33;;;;;;;-0.44;89.17;101117.72;5075799;28;20070;-85
2022/01/08 06:45:59;;;;;;;5.55;3.47;;;;;;;-0.45;89.01;101121.09;5076190;28;20059;-85
2022/01/08 06:48:24;;;;;;;8.80;4.10;;;;;;;-0.44;89.48;101115.19;5076802;28;20530;-85
2022/01/08 06:50:49;;;;;;;6.35;3.67;;;;;;;-0.44;88.98;101104.09;5075466;28;20027;-85
2022/01/08 06:53:14;;;;;;;6.32;3.63;;;;;;;-0.44;89.28;101106.63;5076735;28;20071;-85
2022/01/08 06:55:40;;;;;;;6.03;3.80;;;;;;;-0.49;89.44;101098.84;5075425;28;20479;-85
2022/01/08 06:58:05;;;;;;;6.60;3.85;;;;;;;-0.49;89.46;101104.81;5076457;28;20463;-85
2022/01/08 07:00:30;;;;;;;9.10;4.22;;;;;;;-0.50;89.45;101103.09;5076141;28;20020;-85
2022/01/08 07:02:55;;;;;;;7.15;3.90;;;;;;;-0.51;89.45;101106.44;5075493;28;20051;-85
2022/01/08 07:05:21;;;;;;;6.07;3.65;;;;;;;-0.51;89.25;101111.53;5076332;28;20043;-85
2022/01/08 07:07:46;;;;;;;7.78;4.10;;;;;;;-0.52;89.28;101109.81;5075794;28;20023;-85
2022/01/08 07:10:11;;;;;;;6.50;3.90;;;;;;;-0.52;89.12;101120.00;5075458;28;20081;-85
2022/01/08 07:12:37;;;;;;;6.00;3.28;;;;;;;-0.53;89.42;101112.31;5076486;28;20036;-85
2022/01/08 07:15:03;;;;;;;4.00;3.17;;;;;;;-0.53;88.88;101109.75;5075912;28;20092;-85
2022/01/08 07:17:29;;;;;;;3.90;2.85;;;;;;;-0.54;89.28;101111.44;5075310;28;20465;-85
2022/01/08 07:19:54;;;;;;;4.45;2.95;;;;;;;-0.55;89.16;101119.88;5075914;28;20048;-85
2022/01/08 07:22:21;;;;;;;4.18;2.75;;;;;;;-0.55;89.28;101113.94;5100682;22;20079;-85
2022/01/08 07:24:47;;;;;;;7.00;3.30;;;;;;;-0.56;89.45;101113.06;5074910;28;20036;-85
2022/01/08 07:27:13;;;;;;;8.88;3.90;;;;;;;-0.56;89.18;101107.94;5076086;28;20029;-85
2022/01/08 07:29:38;;;;;;;7.25;4.07;;;;;;;-0.58;89.43;101118.91;5076199;28;20021;-85
2022/01/08 07:32:04;;;;;;;8.90;3.83;;;;;;;-0.60;89.19;101108.69;5075343;28;20392;-85
2022/01/08 07:34:44;;;;;;;6.18;3.80;;;;;;;-0.59;89.53;101109.53;5075922;28;20029;-85
2022/01/08 07:37:09;;;;;;;7.90;4.10;;;;;;;-0.59;89.24;101109.53;5075883;28;20433;-85
2022/01/08 07:39:35;;;;;;;6.15;3.50;;;;;;;-0.57;89.13;101105.38;5075251;28;20107;-85
2022/01/08 07:42:00;;;;;;;4.82;3.35;;;;;;;-0.58;89.53;101117.25;5075587;28;20033;-85
2022/01/08 07:44:25;;;;;;;6.18;3.38;;;;;;;-0.56;89.43;101114.75;5075684;28;20083;-85
2022/01/08 07:46:51;;;;;;;5.88;3.55;;;;;;;-0.56;89.32;101113.06;5074488;28;20036;-85
2022/01/08 07:49:16;;;;;;;6.10;3.85;;;;;;;-0.56;89.45;101105.41;5075581;28;20012;-85
2022/01/08 07:51:41;;;;;;;5.20;3.38;;;;;;;-0.55;89.61;101103.75;5075259;28;20174;-85
2022/01/08 07:54:07;;;;;;;7.75;3.92;;;;;;;-0.52;89.06;101099.59;5075078;28;20043;-85
2022/01/08 07:56:34;;;;;;;6.97;3.88;;;;;;;-0.55;89.45;101086.75;5075360;28;20031;-85
2022/01/08 07:59:00;;;;;;;8.85;4.20;;;;;;;-0.48;89.34;101093.81;5074775;28;20071;-85
2022/01/08 08:01:25;;;;;;;7.53;3.97;;;;;;;-0.50;89.37;101084.34;5075079;28;20029;-85
2022/01/08 08:03:56;;;;;;;9.63;4.20;;;;;;;-0.48;89.30;101090.38;5075153;28;20036;-85
2022/01/08 08:06:22;;;;;;;9.02;4.28;;;;;;;-0.42;89.42;101084.63;5074733;28;20060;-85
2022/01/08 08:08:47;;;;;;;9.10;4.47;;;;;;;-0.39;89.63;101089.81;5074640;28;20090;-85
2022/01/08 08:11:31;;;;;;;7.53;4.10;;;;;;;-0.37;89.79;101090.75;5075334;28;20016;-85
2022/01/08 08:13:56;;;;;;;5.65;3.70;;;;;;;-0.36;89.58;101090.78;5074133;28;20583;-85
2022/01/08 08:16:22;;;;;;;6.53;3.88;;;;;;;-0.35;89.45;101078.91;5069932;28;20071;-83
2022/01/08 08:18:56;;;;;;;6.20;3.72;;;;;;;-0.36;89.22;101065.28;5074193;28;20020;-81
2022/01/08 08:21:22;;;;;;;8.50;3.63;;;;;;;-0.30;89.20;101074.81;5073345;28;20082;-85
2022/01/08 08:23:47;;;;;;;9.02;4.13;;;;;;;-0.28;89.60;101073.19;5074659;28;20048;-86
2022/01/08 08:26:12;;;;;;;6.63;3.63;;;;;;;-0.27;89.51;101064.72;5075141;28;20020;-84
2022/01/08 08:28:37;;;;;;;7.43;3.63;;;;;;;-0.23;89.45;101065.69;5074552;28;20024;-86
2022/01/08 08:31:03;;;;;;;6.60;3.50;;;;;;;-0.23;89.54;101060.59;5060760;28;20021;-86
2022/01/08 08:33:28;;;;;;;6.15;3.33;;;;;;;-0.21;89.97;101057.25;5054862;28;20072;-86
2022/01/08 08:35:54;;;;;;;8.75;4.13;;;;;;;-0.19;90.08;101057.34;5053780;28;20025;-86
2022/01/08 08:38:19;;;;;;;7.97;4.00;;;;;;;-0.16;89.91;101059.97;5054802;28;20025;-86
2022/01/08 08:40:44;;;;;;;9.77;4.15;;;;;;;-0.14;90.26;101060.88;5054519;28;20048;-86
2022/01/08 08:43:09;;;;;;;7.90;4.28;;;;;;;-0.12;90.20;101063.50;5053838;28;20025;-86
2022/01/08 08:45:35;;;;;;;7.38;3.97;;;;;;;-0.09;90.30;101059.34;5054493;28;20028;-86
2022/01/08 08:48:00;;;;;;;9.23;4.60;;;;;;;-0.08;89.65;101050.88;5054409;28;20112;-84
2022/01/08 08:50:25;;;;;;;9.15;4.45;;;;;;;-0.04;90.01;101057.81;5065513;28;20389;-85
2022/01/08 08:52:53;;;;;;;12.00;5.53;;;;;;;-0.02;89.66;101058.72;5074390;28;20028;-86
2022/01/08 08:55:18;;;;;;;12.30;5.43;;;;;;;-0.01;89.93;101051.94;5073600;28;20107;-85
2022/01/08 08:57:50;;;;;;;12.50;5.65;;;;;;;0.02;90.05;101054.56;5073422;28;20104;-85
2022/01/08 09:00:21;;;;;;;17.02;7.30;;;;;;;0.03;89.52;101053.75;5073167;28;20024;-86
2022/01/08 09:02:46;;;;;;;17.52;7.78;;;;;;;0.06;89.45;101058.97;5073231;28;20020;-86
2022/01/08 09:05:12;;;;;;;17.40;7.47;;;;;;;0.13;90.52;101062.56;5074480;28;20033;-86
2022/01/08 09:07:44;;;;;;;15.23;6.95;;;;;;;0.17;90.41;101061.84;5074150;28;20077;-86
2022/01/08 09:10:10;;;;;;;14.90;6.57;;;;;;;0.19;90.11;101056.78;5073405;28;20029;-86
2022/01/08 09:12:37;;;;;;;16.67;7.57;;;;;;;0.28;90.25;101057.06;5074225;28;20143;-86
2022/01/08 09:15:21;;;;;;;17.25;7.78;;;;;;;0.29;90.22;101056.25;5073460;28;20354;-86
2022/01/08 09:17:49;;;;;;;16.50;8.07;;;;;;;0.30;89.93;101056.28;5073173;28;20484;-85
2022/01/08 09:20:14;;;;;;;;;;;;;;;0.33;90.31;101055.53;5074578;28;20028;-85
2022/01/08 09:22:39;;;;;;;16.17;7.00;;;;;;;0.39;90.16;101047.19;5073518;28;19920;-86
2022/01/08 09:25:08;;;;;;;17.08;8.02;;;;;;;0.42;90.18;101042.16;5071480;28;20063;-86
2022/01/08 09:27:37;;;;;;;19.50;8.98;;;;;;;0.36;91.49;101031.78;5064954;28;20025;-86
2022/01/08 09:30:04;;;;;;;19.60;9.20;;;;;;;0.42;91.47;101035.38;5053569;28;20021;-86
2022/01/08 09:32:30;;;;;;;19.05;9.10;;;;;;;0.46;90.56;101029.53;5052886;28;20461;-86
2022/01/08 09:34:55;;;;;;;18.63;8.60;;;;;;;0.47;90.75;101017.63;5054554;28;20533;-86
2022/01/08 09:37:20;;;;;;;17.58;8.18;;;;;;;0.53;91.11;101022.06;5053228;28;20159;-86
2022/01/08 09:39:46;;;;;;;18.25;8.70;;;;;;;0.53;90.92;101014.41;5052351;28;20032;-86
2022/01/08 09:42:11;;;;;;;16.52;7.68;;;;;;;0.56;91.09;101007.69;5053330;28;20021;-86
2022/01/08 09:44:39;;;;;;;18.98;9.13;;;;;;;0.66;90.13;101019.03;5053021;28;20140;-86
2022/01/08 09:47:05;;;;;;;19.15;9.07;;;;;;;0.67;90.72;101014.78;5053597;28;20029;-86
2022/01/08 09:49:31;;;;;;;18.35;9.15;;;;;;;0.73;90.18;101015.81;5053783;28;20021;-86
2022/01/08 09:52:00;;;;;;;18.85;8.68;;;;;;;0.75;90.09;100996.28;5052212;28;20029;-89
2022/01/08 09:54:38;;;;;;;18.17;8.98;;;;;;;0.83;89.39;100991.41;5053620;28;20071;-84
2022/01/08 09:57:04;;;;;;;19.40;9.30;;;;;;;0.88;nan;100994.06;5064740;28;20029;-86
2022/01/08 09:59:38;;;;;;;19.23;8.60;;;;;;;0.86;90.70;100978.69;5052641;28;20035;-86
2022/01/08 10:02:05;;;;;;;19.83;9.07;;;;;;;0.89;90.55;100976.22;5053332;28;20131;-86
2022/01/08 10:04:35;;;;;;;21.20;10.20;;;;;;;0.99;89.57;100968.78;5052778;28;20109;-86
2022/01/08 10:07:19;;;;;;;21.05;10.65;;;;;;;0.99;89.49;100968.78;5052521;28;20420;-85
2022/01/08 10:09:58;;;;;;;19.77;9.52;;;;;;;1.00;90.00;100961.19;5052868;28;20035;-86
2022/01/08 10:12:39;;;;;;;20.70;9.43;;;;;;;1.04;89.68;100947.63;5052942;28;20054;-85
2022/01/08 10:17:49;;;;;;;21.30;10.32;;;;;;;1.13;89.55;100930.78;5055372;28;20040;-87
2022/01/08 10:20:49;;;;;;;21.30;10.02;;;;;;;1.17;89.57;100919.81;5052872;28;20033;-87
2022/01/08 10:23:23;;;;;;;22.83;10.82;;;;;;;1.22;89.33;100911.44;5037229;28;20131;-86
2022/01/08 10:26:03;;;;;;;22.65;11.55;;;;;;;1.25;88.89;100902.97;5051940;28;20040;-87
2022/01/08 10:28:43;;;;;;;21.75;10.82;;;;;;;1.29;89.27;100898.81;5052916;28;20029;-87
2022/01/08 10:31:22;;;;;;;23.00;10.52;;;;;;;1.35;88.96;100898.94;5053560;28;20031;-87
2022/01/08 10:33:51;;;;;;;20.38;9.38;;;;;;;1.34;89.74;100887.88;5052669;28;20021;-87
2022/01/08 10:36:21;;;;;;;19.50;9.05;;;;;;;1.44;89.21;100895.75;5053138;28;20441;-83
2022/01/08 10:38:52;;;;;;;22.02;10.43;;;;;;;1.47;88.95;100889.00;5063688;28;20125;-88
2022/01/08 10:41:18;;;;;;;23.17;11.07;;;;;;;1.50;89.33;100890.75;5072381;28;20381;-88
2022/01/08 10:44:25;;;;;;;21.75;10.23;;;;;;;1.48;89.08;100860.03;5073383;28;20020;-91
2022/01/08 10:47:02;;;;;;;20.15;9.75;;;;;;;1.45;89.81;100854.00;5072993;28;20024;-89
2022/01/08 10:49:33;;;;;;;21.95;10.23;;;;;;;1.52;89.65;100854.13;5073762;28;20020;-89
2022/01/08 10:52:18;;;;;;;25.92;11.50;;;;;;;1.59;89.50;100851.72;5073310;28;20027;-94
2022/01/08 10:55:03;;;;;;;21.77;11.10;;;;;;;1.64;89.23;100843.31;5071923;28;20035;-91
2022/01/08 10:57:50;;;;;;;23.40;11.27;;;;;;;1.69;88.87;100839.16;5053801;28;20017;-91
2022/01/08 11:00:44;;;;;;;21.90;11.07;;;;;;;1.65;89.39;100823.72;5054023;28;20031;-91
2022/01/08 11:03:09;;;;;;;21.13;10.27;;;;;;;1.67;88.91;100811.81;5034423;28;20065;-89
2022/01/08 11:06:09;;;;;;;19.85;9.73;;;;;;;1.71;89.40;100811.06;5052664;28;20125;-90
2022/01/08 11:09:28;;;;;;;22.20;10.80;;;;;;;1.74;89.04;100802.56;5053756;28;20037;-90
2022/01/08 11:11:56;;;;;;;21.27;10.02;;;;;;;1.78;89.41;100794.13;5011674;28;20394;-90
2022/01/08 11:17:37;;;;;;;20.90;9.52;;;;;;;1.88;89.03;100790.03;5047080;28;20079;-91
2022/01/08 11:20:23;;;;;;;19.13;9.15;;;;;;;1.90;88.99;100767.91;5058140;28;20063;-90
2022/01/08 11:23:19;;;;;;;18.20;8.77;;;;;;;1.95;88.81;100772.28;5059530;28;20072;-90
2022/01/08 11:25:48;;;;;;;19.73;8.85;;;;;;;2.03;88.43;100758.78;5056853;28;20119;-92
2022/01/08 11:28:37;;;;;;;20.88;9.45;;;;;;;2.07;88.41;100752.88;5057441;28;20100;-89
2022/01/08 11:31:11;;;;;;;20.27;9.25;;;;;;;2.15;88.16;100751.28;5056382;28;20048;-88
2022/01/08 11:33:42;;;;;;;19.27;9.57;;;;;;;2.24;88.14;100746.38;5056861;28;20025;-91
2022/01/08 11:36:14;;;;;;;17.98;8.40;;;;;;;2.25;87.78;100735.25;5056826;28;20055;-90
2022/01/08 11:38:45;;;;;;;17.83;8.10;;;;;;;2.30;88.19;100735.34;5056872;28;20074;-90
2022/01/08 11:41:20;;;;;;;19.98;8.40;;;;;;;2.33;88.10;100717.47;5056556;28;20389;-91
2022/01/08 11:43:50;;;;;;;16.42;7.47;;;;;;;2.43;87.61;100718.47;5056360;28;20024;-90
2022/01/08 11:46:19;;;;;;;18.00;7.28;;;;;;;2.40;87.33;100711.63;5056823;28;20142;-90
2022/01/08 11:48:56;;;;;;;18.73;7.60;;;;;;;2.45;87.13;100701.44;5075833;28;20017;-90
2022/01/08 11:51:24;;;;;;;16.60;7.32;;;;;;;2.45;86.89;100686.94;5076427;28;20508;-90
2022/01/08 11:54:04;;;;;;;16.98;7.72;;;;;;;2.44;86.88;100674.09;5076653;28;20074;-90
2022/01/08 11:56:33;;;;;;;16.67;7.47;;;;;;;2.49;86.98;100671.59;5076798;28;20029;-90
2022/01/08 11:59:04;;;;;;;16.63;7.10;;;;;;;2.53;87.00;100675.94;5076491;28;20324;-90